createdAt,value
2022-12-26T00:00:06.078Z,7.00
2022-12-26T00:00:15.885Z,7.00
2022-12-26T00:00:25.370Z,7.00
2022-12-26T00:00:34.774Z,7.10
2022-12-26T00:00:44.233Z,7.00
2022-12-26T00:00:53.676Z,7.00
2022-12-26T00:01:02.976Z,7.10
2022-12-26T00:01:12.352Z,7.10
2022-12-26T00:01:21.841Z,7.00
2022-12-26T00:01:31.241Z,7.00
2022-12-26T00:01:40.647Z,7.00
2022-12-26T00:01:50.039Z,7.10
2022-12-26T00:01:59.457Z,7.10
2022-12-26T00:02:08.899Z,7.10
2022-12-26T00:02:27.918Z,7.10
2022-12-26T00:02:37.258Z,7.10
2022-12-26T00:02:46.876Z,7.10
2022-12-26T00:02:56.453Z,7.10
2022-12-26T00:03:05.979Z,7.10
2022-12-26T00:03:15.308Z,7.10
2022-12-26T00:03:24.727Z,7.10
2022-12-26T00:03:34.083Z,7.10
2022-12-26T00:03:43.745Z,7.10
2022-12-26T00:03:53.168Z,7.10
2022-12-26T00:04:02.567Z,7.10
2022-12-26T00:04:49.437Z,7.10
2022-12-26T00:04:49.603Z,7.10
2022-12-26T00:04:50.995Z,7.10
2022-12-26T00:04:51.957Z,7.10
2022-12-26T00:04:53.590Z,7.10
2022-12-26T00:04:59.088Z,7.10
2022-12-26T00:05:17.799Z,7.00
2022-12-26T00:05:27.250Z,7.10
2022-12-26T00:05:36.658Z,7.10
2022-12-26T00:05:46.104Z,7.10
2022-12-26T00:05:55.522Z,7.00
2022-12-26T00:06:05.120Z,7.00
2022-12-26T00:06:14.553Z,7.00
2022-12-26T00:06:24.157Z,7.00
2022-12-26T00:06:33.552Z,7.00
2022-12-26T00:06:43.000Z,7.00
2022-12-26T00:06:52.411Z,7.00
2022-12-26T00:07:01.798Z,7.10
2022-12-26T00:07:11.204Z,7.00
2022-12-26T00:07:20.604Z,7.00
2022-12-26T00:07:30.026Z,7.00
2022-12-26T00:07:39.707Z,7.00
2022-12-26T00:07:49.120Z,7.00
2022-12-26T00:08:07.913Z,7.00
2022-12-26T00:08:17.341Z,7.00
2022-12-26T00:08:26.788Z,7.00
2022-12-26T00:08:36.192Z,7.00
2022-12-26T00:08:45.596Z,7.00
2022-12-26T00:08:54.993Z,7.00
2022-12-26T00:09:04.402Z,7.00
2022-12-26T00:09:13.823Z,7.00
2022-12-26T00:09:23.466Z,7.00
2022-12-26T00:09:32.908Z,7.00
2022-12-26T00:09:42.348Z,7.00
2022-12-26T00:09:52.810Z,7.00
2022-12-26T00:10:02.879Z,7.00
2022-12-26T00:10:12.471Z,7.00
2022-12-26T00:10:21.909Z,6.90
2022-12-26T00:10:31.413Z,6.90
2022-12-26T00:10:40.819Z,6.90
2022-12-26T00:10:50.377Z,6.90
2022-12-26T00:10:59.831Z,6.90
2022-12-26T00:11:09.247Z,6.90
2022-12-26T00:11:28.105Z,6.90
2022-12-26T00:11:37.523Z,6.90
2022-12-26T00:11:46.973Z,6.90
2022-12-26T00:11:56.393Z,6.90
2022-12-26T00:12:05.860Z,6.90
2022-12-26T00:12:15.270Z,6.90
2022-12-26T00:12:24.681Z,6.90
2022-12-26T00:12:34.110Z,6.90
2022-12-26T00:12:43.711Z,6.90
2022-12-26T00:12:53.149Z,6.90
2022-12-26T00:13:38.798Z,6.90
2022-12-26T00:13:39.543Z,6.90
2022-12-26T00:13:39.581Z,6.90
2022-12-26T00:13:39.621Z,6.90
2022-12-26T00:13:41.555Z,6.90
2022-12-26T00:13:49.774Z,6.90
2022-12-26T00:13:59.215Z,6.90
2022-12-26T00:14:18.031Z,6.90
2022-12-26T00:14:27.448Z,6.90
2022-12-26T00:14:36.869Z,6.90
2022-12-26T00:14:46.287Z,6.90
2022-12-26T00:14:55.711Z,6.90
2022-12-26T00:15:05.140Z,6.90
2022-12-26T00:15:14.544Z,6.90
2022-12-26T00:15:23.966Z,6.90
2022-12-26T00:15:33.478Z,6.90
2022-12-26T00:15:42.838Z,6.90
2022-12-26T00:15:52.365Z,6.90
2022-12-26T00:16:01.743Z,6.90
2022-12-26T00:16:11.199Z,6.90
2022-12-26T00:16:20.568Z,6.90
2022-12-26T00:16:30.030Z,6.90
2022-12-26T00:16:39.350Z,6.90
2022-12-26T00:16:58.179Z,6.90
2022-12-26T00:17:07.623Z,6.90
2022-12-26T00:17:17.128Z,6.90
2022-12-26T00:17:26.534Z,6.90
2022-12-26T00:17:35.947Z,6.90
2022-12-26T00:17:45.333Z,6.80
2022-12-26T00:17:54.809Z,6.80
2022-12-26T00:18:04.218Z,6.80
2022-12-26T00:18:13.700Z,6.80
2022-12-26T00:18:23.128Z,6.80
2022-12-26T00:18:32.517Z,6.80
2022-12-26T00:18:41.981Z,6.80
2022-12-26T00:18:51.429Z,6.80
2022-12-26T00:19:00.813Z,6.90
2022-12-26T00:19:10.221Z,6.90
2022-12-26T00:19:19.662Z,6.90
2022-12-26T00:19:29.149Z,6.90
2022-12-26T00:19:48.040Z,6.90
2022-12-26T00:19:57.479Z,6.90
2022-12-26T00:20:06.886Z,6.90
2022-12-26T00:20:16.309Z,6.90
2022-12-26T00:20:25.722Z,6.90
2022-12-26T00:20:35.189Z,6.90
2022-12-26T00:20:44.598Z,6.90
2022-12-26T00:20:54.027Z,6.80
2022-12-26T00:21:03.429Z,6.80
2022-12-26T00:21:12.825Z,6.90
2022-12-26T00:21:22.229Z,6.90
2022-12-26T00:21:31.662Z,6.80
2022-12-26T00:21:41.069Z,6.80
2022-12-26T00:21:50.482Z,6.80
2022-12-26T00:21:59.892Z,6.90
2022-12-26T00:22:09.309Z,6.90
2022-12-26T00:22:28.137Z,6.90
2022-12-26T00:22:37.552Z,6.80
2022-12-26T00:22:46.943Z,6.80
2022-12-26T00:22:56.354Z,6.80
2022-12-26T00:23:05.791Z,6.80
2022-12-26T00:23:15.197Z,6.80
2022-12-26T00:23:24.626Z,6.80
2022-12-26T00:23:34.050Z,6.80
2022-12-26T00:23:43.571Z,6.80
2022-12-26T00:23:53.031Z,6.80
2022-12-26T00:24:02.433Z,6.80
2022-12-26T00:24:11.806Z,6.80
2022-12-26T00:24:21.212Z,6.80
2022-12-26T00:24:30.630Z,6.80
2022-12-26T00:24:40.039Z,6.80
2022-12-26T00:24:49.457Z,6.80
2022-12-26T00:24:58.830Z,6.80
2022-12-26T00:25:17.688Z,6.80
2022-12-26T00:25:27.251Z,6.80
2022-12-26T00:25:36.691Z,6.80
2022-12-26T00:25:46.116Z,6.80
2022-12-26T00:25:55.555Z,6.80
2022-12-26T00:26:05.023Z,6.80
2022-12-26T00:26:14.423Z,6.80
2022-12-26T00:26:23.831Z,6.80
2022-12-26T00:26:33.345Z,6.80
2022-12-26T00:26:42.763Z,6.80
2022-12-26T00:26:52.173Z,6.80
2022-12-26T00:27:01.607Z,6.90
2022-12-26T00:27:10.995Z,6.90
2022-12-26T00:27:20.433Z,6.90
2022-12-26T00:27:29.831Z,6.90
2022-12-26T00:27:39.251Z,6.90
2022-12-26T00:27:58.156Z,6.90
2022-12-26T00:28:07.577Z,6.90
2022-12-26T00:28:16.990Z,6.80
2022-12-26T00:28:26.395Z,6.90
2022-12-26T00:28:35.834Z,6.90
2022-12-26T00:28:45.252Z,6.90
2022-12-26T00:28:54.667Z,6.90
2022-12-26T00:29:04.098Z,6.90
2022-12-26T00:29:13.467Z,6.90
2022-12-26T00:29:22.917Z,6.80
2022-12-26T00:29:32.293Z,6.90
2022-12-26T00:29:41.712Z,6.80
2022-12-26T00:29:51.161Z,6.80
2022-12-26T00:30:00.561Z,6.80
2022-12-26T00:30:09.984Z,6.80
2022-12-26T00:30:19.359Z,6.80
2022-12-26T00:30:28.774Z,6.80
2022-12-26T00:30:47.671Z,6.80
2022-12-26T00:30:57.099Z,6.80
2022-12-26T00:31:06.631Z,6.80
2022-12-26T00:31:16.026Z,6.80
2022-12-26T00:31:25.493Z,6.80
2022-12-26T00:31:34.872Z,6.80
2022-12-26T00:31:44.301Z,6.80
2022-12-26T00:31:53.899Z,6.80
2022-12-26T00:32:03.157Z,6.80
2022-12-26T00:32:12.468Z,6.80
2022-12-26T00:32:21.895Z,6.80
2022-12-26T00:32:31.335Z,6.80
2022-12-26T00:32:40.752Z,6.80
2022-12-26T00:32:50.233Z,6.80
2022-12-26T00:32:59.723Z,6.80
2022-12-26T00:33:09.067Z,6.80
2022-12-26T00:33:27.972Z,6.80
2022-12-26T00:33:37.461Z,6.80
2022-12-26T00:33:46.884Z,6.80
2022-12-26T00:33:56.278Z,6.80
2022-12-26T00:34:05.697Z,6.80
2022-12-26T00:34:15.142Z,6.80
2022-12-26T00:34:24.575Z,6.80
2022-12-26T00:34:33.998Z,6.80
2022-12-26T00:34:43.394Z,6.80
2022-12-26T00:34:52.773Z,6.80
2022-12-26T00:35:02.184Z,6.80
2022-12-26T00:35:11.659Z,6.80
2022-12-26T00:35:21.066Z,6.80
2022-12-26T00:35:30.463Z,6.70
2022-12-26T00:35:39.963Z,6.70
2022-12-26T00:35:49.451Z,6.70
2022-12-26T00:35:58.896Z,6.70
2022-12-26T00:36:17.741Z,6.80
2022-12-26T00:36:27.160Z,6.80
2022-12-26T00:36:36.583Z,6.80
2022-12-26T00:36:46.004Z,6.80
2022-12-26T00:36:55.489Z,6.80
2022-12-26T00:37:04.966Z,6.80
2022-12-26T00:37:14.430Z,6.80
2022-12-26T00:37:23.864Z,6.80
2022-12-26T00:37:33.268Z,6.80
2022-12-26T00:37:42.686Z,6.80
2022-12-26T00:37:52.103Z,6.80
2022-12-26T00:38:01.527Z,6.80
2022-12-26T00:38:10.943Z,6.80
2022-12-26T00:38:20.400Z,6.70
2022-12-26T00:38:29.793Z,6.70
2022-12-26T00:38:39.181Z,6.80
2022-12-26T00:38:58.032Z,6.70
2022-12-26T00:39:07.457Z,6.70
2022-12-26T00:39:16.895Z,6.70
2022-12-26T00:39:26.319Z,6.70
2022-12-26T00:39:35.723Z,6.70
2022-12-26T00:39:45.148Z,6.70
2022-12-26T00:39:54.553Z,6.70
2022-12-26T00:40:03.990Z,6.70
2022-12-26T00:40:13.422Z,6.70
2022-12-26T00:40:22.830Z,6.70
2022-12-26T00:40:32.262Z,6.70
2022-12-26T00:40:41.700Z,6.70
2022-12-26T00:40:51.108Z,6.70
2022-12-26T00:41:00.561Z,6.70
2022-12-26T00:41:09.980Z,6.70
2022-12-26T00:41:19.412Z,6.70
2022-12-26T00:41:28.879Z,6.70
2022-12-26T00:41:47.674Z,6.70
2022-12-26T00:41:57.074Z,6.70
2022-12-26T00:42:06.489Z,6.70
2022-12-26T00:42:15.988Z,6.70
2022-12-26T00:42:25.417Z,6.70
2022-12-26T00:42:34.829Z,6.70
2022-12-26T00:42:44.249Z,6.70
2022-12-26T00:42:53.663Z,6.70
2022-12-26T00:43:03.125Z,6.70
2022-12-26T00:43:12.549Z,6.70
2022-12-26T00:43:22.049Z,6.70
2022-12-26T00:43:31.510Z,6.70
2022-12-26T00:43:40.935Z,6.80
2022-12-26T00:43:50.443Z,6.80
2022-12-26T00:43:59.804Z,6.80
2022-12-26T00:44:09.221Z,6.80
2022-12-26T00:44:28.041Z,6.80
2022-12-26T00:44:37.451Z,6.80
2022-12-26T00:44:46.865Z,6.80
2022-12-26T00:44:56.299Z,6.80
2022-12-26T00:45:05.717Z,6.80
2022-12-26T00:45:15.121Z,6.80
2022-12-26T00:45:24.626Z,6.80
2022-12-26T00:45:34.050Z,6.80
2022-12-26T00:45:43.524Z,6.80
2022-12-26T00:45:52.916Z,6.80
2022-12-26T00:46:02.344Z,6.80
2022-12-26T00:46:11.789Z,6.80
2022-12-26T00:46:21.251Z,6.80
2022-12-26T00:46:30.655Z,6.80
2022-12-26T00:46:40.147Z,6.80
2022-12-26T00:46:49.538Z,6.80
2022-12-26T00:46:58.994Z,6.80
2022-12-26T00:47:17.807Z,6.80
2022-12-26T00:47:27.126Z,6.80
2022-12-26T00:47:36.541Z,6.80
2022-12-26T00:47:45.980Z,6.80
2022-12-26T00:47:55.395Z,6.80
2022-12-26T00:48:04.842Z,6.80
2022-12-26T00:48:14.287Z,6.80
2022-12-26T00:48:23.703Z,6.80
2022-12-26T00:48:33.138Z,6.80
2022-12-26T00:48:42.544Z,6.80
2022-12-26T00:48:51.987Z,6.80
2022-12-26T00:49:01.436Z,6.80
2022-12-26T00:49:10.839Z,6.80
2022-12-26T00:49:20.290Z,6.80
2022-12-26T00:49:29.744Z,6.80
2022-12-26T00:50:12.666Z,6.80
2022-12-26T00:50:13.292Z,6.80
2022-12-26T00:50:14.253Z,6.80
2022-12-26T00:50:16.732Z,6.80
2022-12-26T00:50:29.686Z,6.70
2022-12-26T00:50:35.541Z,6.80
2022-12-26T00:50:45.003Z,6.70
2022-12-26T00:50:54.423Z,6.70
2022-12-26T00:51:03.812Z,6.70
2022-12-26T00:51:13.253Z,6.70
2022-12-26T00:51:22.664Z,6.70
2022-12-26T00:51:32.095Z,6.70
2022-12-26T00:51:41.497Z,6.70
2022-12-26T00:51:50.915Z,6.70
2022-12-26T00:52:00.331Z,6.70
2022-12-26T00:52:09.736Z,6.70
2022-12-26T00:52:19.195Z,6.70
2022-12-26T00:52:38.004Z,6.70
2022-12-26T00:52:47.443Z,6.70
2022-12-26T00:52:56.883Z,6.70
2022-12-26T00:53:06.352Z,6.60
2022-12-26T00:53:15.786Z,6.70
2022-12-26T00:53:25.216Z,6.70
2022-12-26T00:53:34.630Z,6.70
2022-12-26T00:53:44.134Z,6.70
2022-12-26T00:53:53.531Z,6.70
2022-12-26T00:54:02.932Z,6.70
2022-12-26T00:54:12.355Z,6.70
2022-12-26T00:54:21.759Z,6.70
2022-12-26T00:54:31.176Z,6.70
2022-12-26T00:54:40.609Z,6.70
2022-12-26T00:54:50.042Z,6.70
2022-12-26T00:54:59.525Z,6.70
2022-12-26T00:55:08.892Z,6.70
2022-12-26T00:55:27.758Z,6.70
2022-12-26T00:55:37.177Z,6.70
2022-12-26T00:55:46.686Z,6.70
2022-12-26T00:55:56.126Z,6.70
2022-12-26T00:56:05.576Z,6.70
2022-12-26T00:56:15.040Z,6.70
2022-12-26T00:56:24.454Z,6.70
2022-12-26T00:56:33.887Z,6.70
2022-12-26T00:56:43.308Z,6.70
2022-12-26T00:56:52.751Z,6.70
2022-12-26T00:57:02.171Z,6.70
2022-12-26T00:57:11.622Z,6.70
2022-12-26T00:57:21.065Z,6.70
2022-12-26T00:57:30.457Z,6.70
2022-12-26T00:57:39.878Z,6.70
2022-12-26T00:57:49.255Z,6.70
2022-12-26T00:58:08.084Z,6.70
2022-12-26T00:58:17.514Z,6.70
2022-12-26T00:58:26.928Z,6.70
2022-12-26T00:58:36.348Z,6.60
2022-12-26T00:58:45.742Z,6.60
2022-12-26T00:58:55.149Z,6.70
2022-12-26T00:59:04.611Z,6.70
2022-12-26T00:59:14.026Z,6.70
2022-12-26T00:59:23.425Z,6.70
2022-12-26T00:59:32.828Z,6.60
2022-12-26T00:59:42.223Z,6.70
2022-12-26T00:59:51.650Z,6.60
2022-12-26T01:00:01.043Z,6.70
2022-12-26T01:00:10.474Z,6.70
2022-12-26T01:00:19.908Z,6.70
2022-12-26T01:00:29.424Z,6.70
2022-12-26T01:00:38.794Z,6.70
2022-12-26T01:00:57.674Z,6.70
2022-12-26T01:01:07.155Z,6.70
2022-12-26T01:01:16.510Z,6.70
2022-12-26T01:01:25.976Z,6.70
2022-12-26T01:01:35.314Z,6.70
2022-12-26T01:01:44.774Z,6.70
2022-12-26T01:01:54.235Z,6.70
2022-12-26T01:02:03.769Z,6.70
2022-12-26T01:02:12.969Z,6.70
2022-12-26T01:02:22.330Z,6.70
2022-12-26T01:02:31.825Z,6.70
2022-12-26T01:02:41.361Z,6.70
2022-12-26T01:02:50.723Z,6.70
2022-12-26T01:03:00.074Z,6.70
2022-12-26T01:03:09.384Z,6.70
2022-12-26T01:03:28.157Z,6.70
2022-12-26T01:03:37.532Z,6.70
2022-12-26T01:03:46.950Z,6.70
2022-12-26T01:03:56.345Z,6.60
2022-12-26T01:04:05.746Z,6.70
2022-12-26T01:04:15.156Z,6.70
2022-12-26T01:04:24.576Z,6.70
2022-12-26T01:04:33.972Z,6.70
2022-12-26T01:04:43.377Z,6.70
2022-12-26T01:04:52.792Z,6.70
2022-12-26T01:05:02.234Z,6.70
2022-12-26T01:05:11.607Z,6.70
2022-12-26T01:05:21.008Z,6.70
2022-12-26T01:05:30.411Z,6.70
2022-12-26T01:05:39.815Z,6.70
2022-12-26T01:05:49.253Z,6.70
2022-12-26T01:06:08.051Z,6.70
2022-12-26T01:06:17.471Z,6.70
2022-12-26T01:06:26.863Z,6.70
2022-12-26T01:06:36.290Z,6.80
2022-12-26T01:06:45.687Z,6.70
2022-12-26T01:06:55.080Z,6.70
2022-12-26T01:07:04.497Z,6.70
2022-12-26T01:07:13.890Z,6.70
2022-12-26T01:07:23.273Z,6.70
2022-12-26T01:07:32.681Z,6.70
2022-12-26T01:08:19.613Z,6.70
2022-12-26T01:08:21.031Z,6.80
2022-12-26T01:08:21.185Z,6.80
2022-12-26T01:08:23.408Z,6.80
2022-12-26T01:08:24.490Z,6.80
2022-12-26T01:08:29.359Z,6.80
2022-12-26T01:08:38.766Z,6.80
2022-12-26T01:08:57.738Z,6.80
2022-12-26T01:09:07.158Z,6.80
2022-12-26T01:09:16.626Z,6.80
2022-12-26T01:09:26.038Z,6.80
2022-12-26T01:09:35.461Z,6.80
2022-12-26T01:09:44.873Z,6.80
2022-12-26T01:09:54.292Z,6.80
2022-12-26T01:10:03.720Z,6.80
2022-12-26T01:10:13.181Z,6.80
2022-12-26T01:10:22.635Z,6.80
2022-12-26T01:10:32.061Z,6.80
2022-12-26T01:10:41.509Z,6.80
2022-12-26T01:10:50.943Z,6.80
2022-12-26T01:11:00.320Z,6.80
2022-12-26T01:11:09.732Z,6.80
2022-12-26T01:11:19.122Z,6.80
2022-12-26T01:11:37.960Z,6.80
2022-12-26T01:11:47.371Z,6.80
2022-12-26T01:11:56.773Z,6.80
2022-12-26T01:12:06.177Z,6.80
2022-12-26T01:12:15.565Z,6.80
2022-12-26T01:12:24.947Z,6.80
2022-12-26T01:12:34.352Z,6.80
2022-12-26T01:12:43.746Z,6.80
2022-12-26T01:12:53.146Z,6.80
2022-12-26T01:13:02.547Z,6.80
2022-12-26T01:13:11.949Z,6.80
2022-12-26T01:13:21.423Z,6.80
2022-12-26T01:13:30.843Z,6.80
2022-12-26T01:13:40.311Z,6.80
2022-12-26T01:13:49.709Z,6.80
2022-12-26T01:13:59.120Z,6.80
2022-12-26T01:14:17.970Z,6.80
2022-12-26T01:14:27.374Z,6.80
2022-12-26T01:14:36.766Z,6.80
2022-12-26T01:14:46.196Z,6.80
2022-12-26T01:14:55.583Z,6.80
2022-12-26T01:15:05.016Z,6.80
2022-12-26T01:15:14.433Z,6.80
2022-12-26T01:15:23.841Z,6.80
2022-12-26T01:15:33.249Z,6.80
2022-12-26T01:15:42.670Z,6.80
2022-12-26T01:15:52.095Z,6.80
2022-12-26T01:16:01.623Z,6.70
2022-12-26T01:16:11.009Z,6.80
2022-12-26T01:16:20.384Z,6.80
2022-12-26T01:16:29.865Z,6.80
2022-12-26T01:16:39.208Z,6.80
2022-12-26T01:16:58.125Z,6.80
2022-12-26T01:17:07.484Z,6.80
2022-12-26T01:17:16.890Z,6.80
2022-12-26T01:17:26.296Z,6.80
2022-12-26T01:17:35.726Z,6.80
2022-12-26T01:17:45.135Z,6.80
2022-12-26T01:17:54.516Z,6.80
2022-12-26T01:18:03.919Z,6.80
2022-12-26T01:18:13.353Z,6.80
2022-12-26T01:18:22.724Z,6.80
2022-12-26T01:18:32.134Z,6.80
2022-12-26T01:18:41.598Z,6.80
2022-12-26T01:18:50.992Z,6.80
2022-12-26T01:19:00.395Z,6.90
2022-12-26T01:19:09.800Z,6.80
2022-12-26T01:19:19.208Z,6.90
2022-12-26T01:19:38.055Z,6.90
2022-12-26T01:19:47.462Z,6.90
2022-12-26T01:19:56.863Z,6.90
2022-12-26T01:20:06.251Z,6.90
2022-12-26T01:20:15.675Z,6.90
2022-12-26T01:20:25.049Z,6.90
2022-12-26T01:20:34.450Z,6.80
2022-12-26T01:20:43.826Z,6.90
2022-12-26T01:20:53.266Z,6.90
2022-12-26T01:21:02.766Z,6.90
2022-12-26T01:21:12.153Z,6.90
2022-12-26T01:21:21.571Z,6.90
2022-12-26T01:21:30.970Z,6.90
2022-12-26T01:21:40.366Z,6.90
2022-12-26T01:21:49.801Z,6.90
2022-12-26T01:21:59.192Z,6.90
2022-12-26T01:22:18.014Z,6.90
2022-12-26T01:22:27.430Z,6.90
2022-12-26T01:22:36.807Z,6.90
2022-12-26T01:22:46.222Z,6.90
2022-12-26T01:22:55.635Z,6.90
2022-12-26T01:23:05.046Z,6.90
2022-12-26T01:23:14.474Z,6.90
2022-12-26T01:23:23.865Z,6.90
2022-12-26T01:23:33.289Z,6.90
2022-12-26T01:23:42.689Z,6.90
2022-12-26T01:23:52.113Z,6.90
2022-12-26T01:24:01.555Z,6.90
2022-12-26T01:24:10.968Z,6.90
2022-12-26T01:24:20.359Z,6.90
2022-12-26T01:24:29.817Z,6.90
2022-12-26T01:24:39.234Z,6.90
2022-12-26T01:24:58.116Z,6.90
2022-12-26T01:25:07.534Z,6.90
2022-12-26T01:25:16.929Z,7.00
2022-12-26T01:25:26.314Z,7.00
2022-12-26T01:25:35.715Z,7.00
2022-12-26T01:26:17.504Z,7.00
2022-12-26T01:26:18.064Z,7.00
2022-12-26T01:26:18.690Z,7.00
2022-12-26T01:26:18.773Z,7.00
2022-12-26T01:26:22.793Z,7.00
2022-12-26T01:26:32.210Z,7.00
2022-12-26T01:26:41.654Z,7.00
2022-12-26T01:26:51.042Z,7.00
2022-12-26T01:27:00.465Z,7.00
2022-12-26T01:27:09.917Z,7.00
2022-12-26T01:27:19.320Z,7.00
2022-12-26T01:27:38.107Z,7.00
2022-12-26T01:27:47.531Z,7.00
2022-12-26T01:27:56.929Z,7.00
2022-12-26T01:28:06.327Z,7.00
2022-12-26T01:28:15.722Z,7.00
2022-12-26T01:28:25.177Z,7.00
2022-12-26T01:28:34.566Z,7.00
2022-12-26T01:28:43.977Z,7.00
2022-12-26T01:28:53.401Z,7.00
2022-12-26T01:29:02.794Z,7.00
2022-12-26T01:29:12.193Z,7.00
2022-12-26T01:29:21.600Z,7.00
2022-12-26T01:29:31.032Z,7.00
2022-12-26T01:29:40.526Z,7.00
2022-12-26T01:29:49.884Z,7.00
2022-12-26T01:29:59.314Z,7.00
2022-12-26T01:30:18.135Z,7.00
2022-12-26T01:30:27.536Z,7.00
2022-12-26T01:30:36.923Z,7.00
2022-12-26T01:30:46.332Z,7.00
2022-12-26T01:30:55.808Z,7.00
2022-12-26T01:31:05.141Z,7.00
2022-12-26T01:31:14.574Z,7.00
2022-12-26T01:31:24.065Z,7.10
2022-12-26T01:31:33.489Z,7.00
2022-12-26T01:31:42.942Z,7.10
2022-12-26T01:31:52.451Z,7.10
2022-12-26T01:32:01.745Z,7.10
2022-12-26T01:32:11.218Z,7.00
2022-12-26T01:32:20.560Z,7.10
2022-12-26T01:32:29.964Z,7.10
2022-12-26T01:32:39.376Z,7.10
2022-12-26T01:32:48.793Z,7.10
2022-12-26T01:33:07.608Z,7.10
2022-12-26T01:33:17.049Z,7.00
2022-12-26T01:33:26.447Z,7.00
2022-12-26T01:33:35.850Z,7.10
2022-12-26T01:33:45.253Z,7.00
2022-12-26T01:33:54.720Z,7.00
2022-12-26T01:34:04.101Z,7.00
2022-12-26T01:34:13.488Z,7.00
2022-12-26T01:34:22.888Z,7.00
2022-12-26T01:34:32.281Z,7.10
2022-12-26T01:34:41.675Z,7.10
2022-12-26T01:34:51.068Z,7.00
2022-12-26T01:35:00.485Z,7.00
2022-12-26T01:35:09.869Z,7.10
2022-12-26T01:35:19.269Z,7.10
2022-12-26T01:35:38.094Z,7.10
2022-12-26T01:35:47.492Z,7.10
2022-12-26T01:35:56.943Z,7.10
2022-12-26T01:36:06.348Z,7.10
2022-12-26T01:36:15.782Z,7.10
2022-12-26T01:36:25.184Z,7.10
2022-12-26T01:36:34.635Z,7.10
2022-12-26T01:36:44.016Z,7.10
2022-12-26T01:36:53.414Z,7.10
2022-12-26T01:37:02.806Z,7.10
2022-12-26T01:37:12.234Z,7.10
2022-12-26T01:37:21.660Z,7.10
2022-12-26T01:37:31.051Z,7.10
2022-12-26T01:37:40.432Z,7.10
2022-12-26T01:37:49.860Z,7.10
2022-12-26T01:37:59.266Z,7.10
2022-12-26T01:38:18.080Z,7.10
2022-12-26T01:38:27.538Z,7.10
2022-12-26T01:38:36.934Z,7.10
2022-12-26T01:38:46.414Z,7.10
2022-12-26T01:38:55.763Z,7.10
2022-12-26T01:39:05.176Z,7.10
2022-12-26T01:39:14.576Z,7.10
2022-12-26T01:39:24.013Z,7.10
2022-12-26T01:39:33.450Z,7.10
2022-12-26T01:39:42.871Z,7.10
2022-12-26T01:39:52.309Z,7.10
2022-12-26T01:40:01.732Z,7.10
2022-12-26T01:40:11.137Z,7.10
2022-12-26T01:40:20.536Z,7.10
2022-12-26T01:40:29.945Z,7.10
2022-12-26T01:40:39.349Z,7.10
2022-12-26T01:40:48.755Z,7.10
2022-12-26T01:41:07.587Z,7.10
2022-12-26T01:41:17.258Z,7.10
2022-12-26T01:41:26.420Z,7.00
2022-12-26T01:41:35.851Z,7.00
2022-12-26T01:41:45.277Z,7.00
2022-12-26T01:41:54.703Z,7.00
2022-12-26T01:42:04.126Z,7.00
2022-12-26T01:42:13.544Z,6.90
2022-12-26T01:42:22.989Z,6.90
2022-12-26T01:42:32.383Z,6.90
2022-12-26T01:42:41.965Z,6.90
2022-12-26T01:42:51.224Z,6.80
2022-12-26T01:43:00.618Z,6.80
2022-12-26T01:43:10.014Z,6.80
2022-12-26T01:43:19.445Z,6.70
2022-12-26T01:43:28.872Z,6.70
2022-12-26T01:43:47.701Z,6.70
2022-12-26T01:43:57.145Z,6.70
2022-12-26T01:44:06.548Z,6.60
2022-12-26T01:44:15.927Z,6.60
2022-12-26T01:44:25.328Z,6.60
2022-12-26T01:44:34.752Z,6.60
2022-12-26T01:44:44.172Z,6.60
2022-12-26T01:44:53.587Z,6.60
2022-12-26T01:45:03.007Z,6.60
2022-12-26T01:45:12.435Z,6.60
2022-12-26T01:45:21.817Z,6.60
2022-12-26T01:45:31.328Z,6.60
2022-12-26T01:45:40.748Z,6.60
2022-12-26T01:45:50.201Z,6.60
2022-12-26T01:45:59.683Z,6.60
2022-12-26T01:46:09.108Z,6.60
2022-12-26T01:46:27.948Z,6.60
2022-12-26T01:46:37.264Z,6.60
2022-12-26T01:46:46.685Z,6.70
2022-12-26T01:46:56.109Z,6.70
2022-12-26T01:47:05.519Z,6.70
2022-12-26T01:47:14.925Z,6.70
2022-12-26T01:47:24.316Z,6.70
2022-12-26T01:47:33.817Z,6.70
2022-12-26T01:47:43.215Z,6.70
2022-12-26T01:47:52.627Z,6.70
2022-12-26T01:48:02.049Z,6.80
2022-12-26T01:48:11.472Z,6.80
2022-12-26T01:48:20.884Z,6.80
2022-12-26T01:48:30.272Z,6.80
2022-12-26T01:48:39.694Z,6.80
2022-12-26T01:48:49.113Z,6.80
2022-12-26T01:49:07.989Z,6.90
2022-12-26T01:49:17.436Z,6.90
2022-12-26T01:49:26.872Z,6.90
2022-12-26T01:49:36.292Z,6.90
2022-12-26T01:49:45.681Z,6.80
2022-12-26T01:49:55.108Z,6.90
2022-12-26T01:50:04.494Z,6.90
2022-12-26T01:50:13.896Z,6.90
2022-12-26T01:50:23.324Z,7.00
2022-12-26T01:50:32.743Z,7.00
2022-12-26T01:50:42.165Z,7.00
2022-12-26T01:50:51.548Z,7.00
2022-12-26T01:51:01.010Z,7.00
2022-12-26T01:51:10.434Z,7.00
2022-12-26T01:51:19.849Z,7.00
2022-12-26T01:51:29.270Z,7.10
2022-12-26T01:51:48.074Z,7.10
2022-12-26T01:51:57.466Z,7.10
2022-12-26T01:52:06.911Z,7.10
2022-12-26T01:52:16.356Z,7.10
2022-12-26T01:52:25.744Z,7.20
2022-12-26T01:52:35.144Z,7.20
2022-12-26T01:52:44.532Z,7.20
2022-12-26T01:52:53.944Z,7.20
2022-12-26T01:53:03.372Z,7.20
2022-12-26T01:53:12.805Z,7.20
2022-12-26T01:53:22.221Z,7.20
2022-12-26T01:53:31.702Z,7.30
2022-12-26T01:53:41.105Z,7.20
2022-12-26T01:53:50.545Z,7.30
2022-12-26T01:54:37.424Z,7.30
2022-12-26T01:54:39.887Z,7.30
2022-12-26T01:54:40.734Z,7.30
2022-12-26T01:54:42.334Z,7.30
2022-12-26T01:54:47.160Z,7.30
2022-12-26T01:54:56.561Z,7.30
2022-12-26T01:55:06.049Z,7.30
2022-12-26T01:55:15.480Z,7.30
2022-12-26T01:55:24.888Z,7.30
2022-12-26T01:55:34.319Z,7.30
2022-12-26T01:55:43.737Z,7.30
2022-12-26T01:55:53.168Z,7.30
2022-12-26T01:56:02.590Z,7.30
2022-12-26T01:56:11.997Z,7.30
2022-12-26T01:56:21.412Z,7.30
2022-12-26T01:56:30.853Z,7.30
2022-12-26T01:56:40.244Z,7.30
2022-12-26T01:56:49.648Z,7.40
2022-12-26T01:56:59.046Z,7.40
2022-12-26T01:57:17.928Z,7.40
2022-12-26T01:57:27.332Z,7.40
2022-12-26T01:57:36.756Z,7.40
2022-12-26T01:57:46.176Z,7.40
2022-12-26T01:57:55.577Z,7.40
2022-12-26T01:58:05.005Z,7.40
2022-12-26T01:58:14.668Z,7.40
2022-12-26T01:58:24.184Z,7.40
2022-12-26T01:58:33.596Z,7.30
2022-12-26T01:58:43.013Z,7.40
2022-12-26T01:58:52.420Z,7.40
2022-12-26T01:59:01.827Z,7.40
2022-12-26T01:59:11.342Z,7.40
2022-12-26T01:59:20.754Z,7.40
2022-12-26T01:59:30.172Z,7.40
2022-12-26T01:59:39.608Z,7.40
2022-12-26T01:59:49.050Z,7.40
2022-12-26T02:00:07.849Z,7.40
2022-12-26T02:00:17.280Z,7.50
2022-12-26T02:00:26.690Z,7.50
2022-12-26T02:00:36.120Z,7.50
2022-12-26T02:00:45.519Z,7.50
2022-12-26T02:00:54.962Z,7.50
2022-12-26T02:01:04.674Z,7.50
2022-12-26T02:01:13.890Z,7.40
2022-12-26T02:01:23.331Z,7.50
2022-12-26T02:01:32.693Z,7.50
2022-12-26T02:01:42.035Z,7.50
2022-12-26T02:01:51.644Z,7.40
2022-12-26T02:02:01.156Z,7.40
2022-12-26T02:02:10.526Z,7.40
2022-12-26T02:02:19.788Z,7.40
2022-12-26T02:02:29.218Z,7.40
2022-12-26T02:02:48.075Z,7.40
2022-12-26T02:02:57.479Z,7.40
2022-12-26T02:03:06.773Z,7.40
2022-12-26T02:03:16.287Z,7.40
2022-12-26T02:03:25.653Z,7.40
2022-12-26T02:03:35.039Z,7.40
2022-12-26T02:03:44.616Z,7.40
2022-12-26T02:03:54.003Z,7.40
2022-12-26T02:04:03.403Z,7.40
2022-12-26T02:04:12.803Z,7.40
2022-12-26T02:04:22.198Z,7.40
2022-12-26T02:04:31.621Z,7.40
2022-12-26T02:04:41.030Z,7.40
2022-12-26T02:04:50.440Z,7.40
2022-12-26T02:04:59.961Z,7.40
2022-12-26T02:05:09.302Z,7.40
2022-12-26T02:05:28.125Z,7.40
2022-12-26T02:05:37.508Z,7.40
2022-12-26T02:05:46.938Z,7.40
2022-12-26T02:05:56.336Z,7.40
2022-12-26T02:06:05.822Z,7.40
2022-12-26T02:06:15.200Z,7.40
2022-12-26T02:06:24.615Z,7.40
2022-12-26T02:06:34.031Z,7.40
2022-12-26T02:06:43.603Z,7.40
2022-12-26T02:06:53.009Z,7.40
2022-12-26T02:07:02.478Z,7.40
2022-12-26T02:07:11.912Z,7.40
2022-12-26T02:07:21.324Z,7.40
2022-12-26T02:07:30.743Z,7.40
2022-12-26T02:07:40.162Z,7.40
2022-12-26T02:07:49.552Z,7.40
2022-12-26T02:07:58.966Z,7.40
2022-12-26T02:08:17.826Z,7.30
2022-12-26T02:08:27.231Z,7.40
2022-12-26T02:08:36.655Z,7.40
2022-12-26T02:08:46.083Z,7.40
2022-12-26T02:08:55.498Z,7.40
2022-12-26T02:09:04.933Z,7.40
2022-12-26T02:09:14.344Z,7.40
2022-12-26T02:09:23.766Z,7.40
2022-12-26T02:09:33.169Z,7.40
2022-12-26T02:09:42.586Z,7.40
2022-12-26T02:09:52.018Z,7.40
2022-12-26T02:10:01.444Z,7.40
2022-12-26T02:10:10.832Z,7.40
2022-12-26T02:10:20.231Z,7.40
2022-12-26T02:10:29.640Z,7.40
2022-12-26T02:10:39.049Z,7.40
2022-12-26T02:10:57.841Z,7.30
2022-12-26T02:11:07.286Z,7.40
2022-12-26T02:11:16.703Z,7.40
2022-12-26T02:11:26.126Z,7.40
2022-12-26T02:11:35.574Z,7.40
2022-12-26T02:11:44.979Z,7.40
2022-12-26T02:12:34.040Z,7.40
2022-12-26T02:12:34.131Z,7.40
2022-12-26T02:12:34.933Z,7.40
2022-12-26T02:12:36.319Z,7.40
2022-12-26T02:12:36.387Z,7.40
2022-12-26T02:12:41.461Z,7.40
2022-12-26T02:12:50.849Z,7.40
2022-12-26T02:13:00.240Z,7.40